createdAt,value
2019-02-15T00:00:51.906Z,57.80
2019-02-15T00:01:32.540Z,58.00
2019-02-15T00:02:11.246Z,58.00
2019-02-15T00:02:49.861Z,57.90
2019-02-15T00:03:28.520Z,57.90
2019-02-15T00:04:07.367Z,58.00
2019-02-15T00:04:46.832Z,57.90
2019-02-15T00:05:26.291Z,58.00
2019-02-15T00:06:04.957Z,58.00
2019-02-15T00:06:44.341Z,58.00
2019-02-15T00:07:23.738Z,58.10
2019-02-15T00:08:03.026Z,58.10
2019-02-15T00:08:42.770Z,58.10
2019-02-15T00:09:40.495Z,58.60
2019-02-15T00:10:19.658Z,57.90
2019-02-15T00:10:58.294Z,58.10
2019-02-15T00:11:37.268Z,58.20
2019-02-15T00:12:16.106Z,58.30
2019-02-15T00:12:54.953Z,58.30
2019-02-15T00:13:33.972Z,58.20
2019-02-15T00:14:13.322Z,58.30
2019-02-15T00:14:53.359Z,58.40
2019-02-15T00:15:32.301Z,58.30
2019-02-15T00:16:11.584Z,58.30
2019-02-15T00:16:50.277Z,58.30
2019-02-15T00:17:45.566Z,58.30
2019-02-15T00:18:46.177Z,58.40
2019-02-15T00:19:47.523Z,58.40
2019-02-15T00:20:33.702Z,58.40
2019-02-15T00:21:31.124Z,58.60
2019-02-15T00:22:09.710Z,58.60
2019-02-15T00:22:48.535Z,58.60
2019-02-15T00:23:27.304Z,58.60
2019-02-15T00:24:06.333Z,58.70
2019-02-15T00:24:45.661Z,58.70
2019-02-15T00:25:24.843Z,58.80
2019-02-15T00:26:04.274Z,58.80
2019-02-15T00:26:43.521Z,58.90
2019-02-15T00:27:22.308Z,58.90
2019-02-15T00:28:01.515Z,59.00
2019-02-15T00:28:40.106Z,59.10
2019-02-15T00:29:18.702Z,59.10
2019-02-15T00:29:57.474Z,59.10
2019-02-15T00:30:36.411Z,59.10
2019-02-15T00:31:17.768Z,59.10
2019-02-15T00:31:56.611Z,59.20
2019-02-15T00:32:35.550Z,59.10
2019-02-15T00:33:14.753Z,59.10
2019-02-15T00:33:54.207Z,59.20
2019-02-15T00:34:33.676Z,59.80
2019-02-15T00:35:12.354Z,59.30
2019-02-15T00:35:51.575Z,59.50
2019-02-15T00:36:30.350Z,59.50
2019-02-15T00:37:09.011Z,59.40
2019-02-15T00:37:47.672Z,59.50
2019-02-15T00:38:26.938Z,59.60
2019-02-15T00:39:06.377Z,59.50
2019-02-15T00:39:45.716Z,59.70
2019-02-15T00:40:24.951Z,59.70
2019-02-15T00:41:04.402Z,59.70
2019-02-15T00:41:44.349Z,59.70
2019-02-15T00:42:23.664Z,59.70
2019-02-15T00:43:03.452Z,59.50
2019-02-15T00:43:42.143Z,59.70
2019-02-15T00:44:20.791Z,59.90
2019-02-15T00:44:59.485Z,59.90
2019-02-15T00:45:45.867Z,59.80
2019-02-15T00:46:33.913Z,59.80
2019-02-15T00:47:25.594Z,59.90
2019-02-15T00:48:10.779Z,60.60
2019-02-15T00:48:49.493Z,60.00
2019-02-15T00:49:45.023Z,60.00
2019-02-15T00:50:38.874Z,60.00
2019-02-15T00:51:34.502Z,60.70
2019-02-15T00:52:43.598Z,60.20
2019-02-15T00:53:44.258Z,60.20
2019-02-15T00:54:28.421Z,60.20
2019-02-15T00:55:24.608Z,60.90
2019-02-15T00:56:12.552Z,60.00
2019-02-15T00:57:08.150Z,60.00
2019-02-15T00:58:20.035Z,60.00
2019-02-15T00:59:16.749Z,60.00
2019-02-15T01:00:04.934Z,60.00
2019-02-15T01:01:01.226Z,60.20
2019-02-15T01:01:56.829Z,60.10
2019-02-15T01:02:53.974Z,60.00
2019-02-15T01:03:51.186Z,60.20
2019-02-15T01:05:03.471Z,60.20
2019-02-15T01:06:00.513Z,60.20
2019-02-15T01:06:44.920Z,60.20
2019-02-15T01:07:37.327Z,60.30
2019-02-15T01:08:32.336Z,60.30
2019-02-15T01:09:32.621Z,60.30
2019-02-15T01:10:28.896Z,60.40
2019-02-15T01:11:18.734Z,60.40
2019-02-15T01:12:09.975Z,60.30
2019-02-15T01:13:10.463Z,60.40
2019-02-15T01:13:49.341Z,60.50
2019-02-15T01:14:28.330Z,61.20
2019-02-15T01:15:07.345Z,60.40
2019-02-15T01:15:46.463Z,60.40
2019-02-15T01:16:25.137Z,60.50
2019-02-15T01:17:03.787Z,60.50
2019-02-15T01:17:42.539Z,60.40
2019-02-15T01:18:21.307Z,60.50
2019-02-15T01:19:00.319Z,60.50
2019-02-15T01:19:39.525Z,60.60
2019-02-15T01:20:18.225Z,60.50
2019-02-15T01:20:57.129Z,61.40
2019-02-15T01:21:36.384Z,60.60
2019-02-15T01:22:15.164Z,60.50
2019-02-15T01:22:53.866Z,60.50
2019-02-15T01:23:32.543Z,60.60
2019-02-15T01:24:11.215Z,60.50
2019-02-15T01:24:50.307Z,60.50
2019-02-15T01:44:43.132Z,60.30
2019-02-15T01:45:28.699Z,60.30
2019-02-15T01:46:23.461Z,60.30
2019-02-15T01:47:09.984Z,60.20
2019-02-15T01:47:51.103Z,60.30
2019-02-15T01:48:30.282Z,60.30
2019-02-15T01:49:09.462Z,60.20
2019-02-15T01:49:48.864Z,60.20
2019-02-15T01:50:27.597Z,60.20
2019-02-15T01:51:06.699Z,60.20
2019-02-15T01:51:45.321Z,60.20
2019-02-15T01:52:23.986Z,60.20
2019-02-15T01:53:02.621Z,60.20
2019-02-15T01:53:41.823Z,60.20
2019-02-15T01:54:20.529Z,60.30
2019-02-15T01:55:00.234Z,60.30
2019-02-15T01:55:39.434Z,60.20
2019-02-15T01:56:18.914Z,60.20
2019-02-15T01:56:58.284Z,60.20
2019-02-15T01:57:37.189Z,60.30
2019-02-15T01:58:15.838Z,60.30
2019-02-15T01:58:54.549Z,60.30
2019-02-15T01:59:33.915Z,60.20
2019-02-15T02:00:15.342Z,60.20
2019-02-15T02:00:54.103Z,60.20
2019-02-15T02:01:32.900Z,60.20
2019-02-15T02:02:11.587Z,60.30
2019-02-15T02:02:50.308Z,60.20
2019-02-15T02:03:29.520Z,60.30
2019-02-15T02:04:08.712Z,60.20
2019-02-15T02:04:48.865Z,60.30
2019-02-15T02:05:27.863Z,60.20
2019-02-15T02:06:07.154Z,60.20
2019-02-15T02:06:46.500Z,60.30
2019-02-15T02:07:25.481Z,60.80
2019-02-15T02:08:05.129Z,60.30
2019-02-15T02:08:43.765Z,60.40
2019-02-15T02:09:23.649Z,60.30
2019-02-15T02:10:02.812Z,61.10
2019-02-15T02:10:41.507Z,60.30
2019-02-15T02:11:20.120Z,60.20
2019-02-15T02:11:59.265Z,61.00
2019-02-15T02:12:38.231Z,60.20
2019-02-15T02:13:16.945Z,60.30
2019-02-15T02:13:56.528Z,60.20
2019-02-15T02:14:35.170Z,60.20
2019-02-15T02:15:14.713Z,60.10
2019-02-15T02:15:53.838Z,60.20
2019-02-15T02:16:33.044Z,60.20
2019-02-15T02:17:12.225Z,60.20
2019-02-15T02:17:51.012Z,60.20
2019-02-15T02:18:30.283Z,60.20
2019-02-15T02:19:09.380Z,60.30
2019-02-15T02:19:48.462Z,60.20
2019-02-15T02:20:27.215Z,60.10
2019-02-15T02:21:07.103Z,60.20
2019-02-15T02:21:45.966Z,60.20
2019-02-15T02:22:26.064Z,60.20
2019-02-15T02:23:05.015Z,60.10
2019-02-15T02:23:44.102Z,60.30
2019-02-15T02:24:23.256Z,60.20
2019-02-15T02:25:02.789Z,60.20
2019-02-15T02:25:41.508Z,60.20
2019-02-15T02:26:21.381Z,60.20
2019-02-15T02:27:00.145Z,60.10
2019-02-15T02:27:38.883Z,60.10
2019-02-15T02:28:18.161Z,60.10
2019-02-15T02:28:56.987Z,60.10
2019-02-15T02:29:35.849Z,60.10
2019-02-15T02:30:15.819Z,60.10
2019-02-15T02:30:55.175Z,60.10
2019-02-15T02:31:34.239Z,60.10
2019-02-15T02:32:13.591Z,60.10
2019-02-15T02:32:52.807Z,60.20
2019-02-15T02:33:50.100Z,60.10
2019-02-15T02:34:30.617Z,59.90
2019-02-15T02:35:09.375Z,60.20
2019-02-15T02:35:48.137Z,60.10
2019-02-15T02:36:38.419Z,60.20
2019-02-15T02:37:17.296Z,60.10
2019-02-15T02:37:56.232Z,60.20
2019-02-15T02:38:36.309Z,60.20
2019-02-15T02:39:15.577Z,60.20
2019-02-15T02:39:54.561Z,60.10
2019-02-15T02:40:33.243Z,60.10
2019-02-15T02:41:12.364Z,60.10
2019-02-15T02:41:51.891Z,60.10
2019-02-15T02:42:30.684Z,60.10
2019-02-15T02:43:09.856Z,60.10
2019-02-15T02:43:48.790Z,60.10
2019-02-15T02:44:27.622Z,60.10
2019-02-15T02:45:07.404Z,60.10
2019-02-15T02:45:46.216Z,60.10
2019-02-15T02:46:25.545Z,60.10
2019-02-15T02:47:05.380Z,60.10
2019-02-15T02:47:44.741Z,60.00
2019-02-15T02:48:24.650Z,60.00
2019-02-15T02:49:03.942Z,60.00
2019-02-15T02:49:42.609Z,60.10
2019-02-15T02:50:21.364Z,60.10
2019-02-15T02:51:00.144Z,60.10
2019-02-15T02:51:38.861Z,60.20
2019-02-15T02:52:17.690Z,60.20
2019-02-15T02:52:56.424Z,60.20
2019-02-15T02:53:36.097Z,60.10
2019-02-15T02:54:15.254Z,60.10
2019-02-15T02:54:53.982Z,60.20
2019-02-15T02:55:33.239Z,60.10
2019-02-15T02:56:11.903Z,60.10
2019-02-15T02:56:50.652Z,61.00
2019-02-15T02:57:29.356Z,60.10
2019-02-15T02:58:08.129Z,60.10
2019-02-15T02:58:46.696Z,60.10
2019-02-15T02:59:25.524Z,60.10
2019-02-15T03:00:04.734Z,60.00
2019-02-15T03:00:43.958Z,60.00
2019-02-15T03:01:23.448Z,60.10
2019-02-15T03:02:02.811Z,60.00
2019-02-15T03:02:42.215Z,60.10
2019-02-15T03:03:20.857Z,60.00
2019-02-15T03:03:59.513Z,60.00
2019-02-15T03:04:38.199Z,60.00
2019-02-15T03:05:16.797Z,59.90
2019-02-15T03:05:55.472Z,59.90
2019-02-15T03:06:34.159Z,59.90
2019-02-15T03:07:13.647Z,59.80
2019-02-15T03:07:52.289Z,59.80
2019-02-15T03:08:31.110Z,59.80
2019-02-15T03:09:11.912Z,59.80
2019-02-15T03:09:50.623Z,59.90
2019-02-15T03:10:29.375Z,59.80
2019-02-15T03:11:26.229Z,59.80
2019-02-15T03:12:05.444Z,59.60
2019-02-15T03:12:44.661Z,59.80
2019-02-15T03:13:23.416Z,59.80
2019-02-15T03:14:11.152Z,59.80
2019-02-15T03:14:42.106Z,59.80
2019-02-15T03:15:20.859Z,59.80
2019-02-15T03:15:59.853Z,59.70
2019-02-15T03:16:38.512Z,59.80
2019-02-15T03:17:17.222Z,60.50
2019-02-15T03:17:55.913Z,59.80
2019-02-15T03:18:35.845Z,59.80
2019-02-15T03:19:15.248Z,59.80
2019-02-15T03:19:54.443Z,59.70
2019-02-15T03:20:33.803Z,59.70
2019-02-15T03:21:12.587Z,59.70
2019-02-15T03:21:52.033Z,59.70
2019-02-15T03:22:30.835Z,59.70
2019-02-15T03:23:09.508Z,59.70
2019-02-15T03:23:49.166Z,59.70
2019-02-15T03:24:28.376Z,59.70
2019-02-15T03:25:07.158Z,59.60
2019-02-15T03:25:46.335Z,59.60
2019-02-15T03:26:25.057Z,59.60
2019-02-15T03:27:03.801Z,59.60
2019-02-15T03:27:43.053Z,59.60
2019-02-15T03:28:22.520Z,59.70
2019-02-15T03:29:01.176Z,59.70
2019-02-15T03:29:40.111Z,59.70
2019-02-15T03:30:18.981Z,59.70
2019-02-15T03:30:58.101Z,59.80
2019-02-15T03:31:36.983Z,59.70
2019-02-15T03:32:15.675Z,59.70
2019-02-15T03:32:54.345Z,59.70
2019-02-15T03:33:33.053Z,59.60
2019-02-15T03:34:11.818Z,59.60
2019-02-15T03:34:51.188Z,59.60
2019-02-15T03:35:30.344Z,59.50
2019-02-15T03:36:10.287Z,59.50
2019-02-15T03:37:25.715Z,59.70
2019-02-15T03:38:28.388Z,59.60
2019-02-15T03:39:16.550Z,59.60
2019-02-15T03:39:58.665Z,59.60
2019-02-15T03:40:58.784Z,59.60
2019-02-15T03:41:38.211Z,59.50
2019-02-15T03:42:18.220Z,59.60
2019-02-15T03:42:57.634Z,59.50
2019-02-15T03:43:36.826Z,59.50
2019-02-15T03:44:21.648Z,59.50
2019-02-15T03:44:55.542Z,59.50
2019-02-15T03:45:34.305Z,59.50
2019-02-15T03:46:13.527Z,59.50
2019-02-15T03:46:52.993Z,59.50
2019-02-15T03:47:32.479Z,59.50
2019-02-15T03:48:11.418Z,59.50
2019-02-15T03:48:51.417Z,59.40
2019-02-15T03:49:30.773Z,59.40
2019-02-15T03:50:10.277Z,59.40
2019-02-15T03:50:49.682Z,59.30
2019-02-15T03:51:29.010Z,60.00
2019-02-15T03:52:08.352Z,59.40
2019-02-15T03:52:47.415Z,59.30
2019-02-15T03:53:26.166Z,59.40
2019-02-15T03:54:05.179Z,59.30
2019-02-15T03:54:44.503Z,59.30
2019-02-15T03:55:23.177Z,59.30
2019-02-15T03:56:02.031Z,59.30
2019-02-15T03:56:40.950Z,59.20
2019-02-15T03:57:19.963Z,59.20
2019-02-15T03:57:59.259Z,59.30
2019-02-15T03:58:39.525Z,59.30
2019-02-15T03:59:18.786Z,59.50
2019-02-15T03:59:58.071Z,59.30
2019-02-15T04:00:37.432Z,59.20
2019-02-15T04:01:16.189Z,59.30
2019-02-15T04:01:54.787Z,59.20
2019-02-15T04:02:33.467Z,59.20
2019-02-15T04:03:12.563Z,59.20
2019-02-15T04:03:51.803Z,59.30
2019-02-15T04:04:31.081Z,59.20
2019-02-15T04:05:10.970Z,59.20
2019-02-15T04:05:50.016Z,59.20
2019-02-15T04:06:28.755Z,59.10
2019-02-15T04:07:09.979Z,59.10
2019-02-15T04:07:49.231Z,59.20
2019-02-15T04:08:28.672Z,59.20
2019-02-15T04:09:08.483Z,59.20
2019-02-15T04:09:47.989Z,59.20
2019-02-15T04:10:26.733Z,59.20
2019-02-15T04:11:05.433Z,59.20
2019-02-15T04:11:44.139Z,59.20
2019-02-15T04:12:23.200Z,59.10
2019-02-15T04:13:01.919Z,59.10
2019-02-15T04:13:41.091Z,59.10
2019-02-15T04:14:20.394Z,59.10
2019-02-15T04:14:59.626Z,59.10
2019-02-15T04:15:38.549Z,59.10
2019-02-15T04:16:17.227Z,59.10
2019-02-15T04:16:56.583Z,59.10
2019-02-15T04:17:35.295Z,59.20
2019-02-15T04:18:14.854Z,59.10
2019-02-15T04:18:53.595Z,59.20
2019-02-15T04:19:33.008Z,59.10
2019-02-15T04:20:12.722Z,59.00
2019-02-15T04:20:51.900Z,59.10
2019-02-15T04:21:30.812Z,59.10
2019-02-15T04:22:09.977Z,59.00
2019-02-15T04:22:49.440Z,59.00
2019-02-15T04:23:28.140Z,59.20
2019-02-15T04:24:06.930Z,59.20
2019-02-15T04:24:46.366Z,59.80
2019-02-15T04:25:25.237Z,59.20
2019-02-15T04:26:05.036Z,59.10
2019-02-15T04:26:43.880Z,59.20
2019-02-15T04:27:22.438Z,59.20
2019-02-15T04:28:01.123Z,59.20
2019-02-15T04:28:39.745Z,59.20
2019-02-15T04:29:18.324Z,59.20
2019-02-15T04:29:56.961Z,59.30
2019-02-15T04:30:35.910Z,59.20
2019-02-15T04:31:15.080Z,59.20
2019-02-15T04:31:54.410Z,59.10
2019-02-15T04:32:33.599Z,59.00
2019-02-15T04:33:13.219Z,59.10
2019-02-15T04:33:52.473Z,59.00
2019-02-15T04:34:31.737Z,59.00
2019-02-15T04:35:10.607Z,59.00
2019-02-15T04:35:49.685Z,59.10
2019-02-15T04:36:28.461Z,59.10
2019-02-15T04:37:07.353Z,59.10
2019-02-15T04:37:46.141Z,59.30
2019-02-15T04:38:25.237Z,59.30
2019-02-15T04:39:04.339Z,59.30
2019-02-15T04:39:43.838Z,59.20
2019-02-15T04:40:23.196Z,59.10
2019-02-15T04:41:02.133Z,59.30
2019-02-15T04:41:41.418Z,59.30
2019-02-15T04:42:20.127Z,59.30
2019-02-15T04:42:59.097Z,59.30
2019-02-15T04:43:37.814Z,59.20
2019-02-15T04:44:16.560Z,59.20
2019-02-15T04:44:55.315Z,59.20
2019-02-15T04:45:34.627Z,59.20
2019-02-15T04:46:13.774Z,59.20
2019-02-15T04:46:52.908Z,59.10
2019-02-15T04:47:31.616Z,59.10
2019-02-15T04:48:10.517Z,59.10
2019-02-15T04:48:49.854Z,59.10
2019-02-15T04:49:28.534Z,59.10
2019-02-15T04:50:07.877Z,59.10
2019-02-15T04:50:47.856Z,59.20
2019-02-15T04:51:27.501Z,59.20
2019-02-15T04:52:06.200Z,59.10
2019-02-15T04:52:45.774Z,59.00
2019-02-15T04:53:25.175Z,59.00
2019-02-15T04:54:04.435Z,59.10
2019-02-15T04:54:43.082Z,59.10
2019-02-15T04:55:21.796Z,59.20
2019-02-15T04:56:00.585Z,59.10
2019-02-15T04:56:39.729Z,59.10
2019-02-15T04:57:18.413Z,59.10
2019-02-15T04:57:57.086Z,59.20
2019-02-15T04:58:36.381Z,59.10
2019-02-15T04:59:15.156Z,59.30
2019-02-15T04:59:54.327Z,59.20
2019-02-15T05:00:33.504Z,59.10
2019-02-15T05:01:12.723Z,59.10
2019-02-15T05:01:52.167Z,59.20
2019-02-15T05:02:30.829Z,59.20
2019-02-15T05:03:10.118Z,59.20
2019-02-15T05:03:48.943Z,59.20
2019-02-15T05:04:27.986Z,59.10
2019-02-15T05:05:06.988Z,59.10
2019-02-15T05:05:47.060Z,59.00
2019-02-15T05:06:26.281Z,59.00
2019-02-15T05:07:04.920Z,59.00
2019-02-15T05:07:43.623Z,59.00
2019-02-15T05:08:22.357Z,58.90
2019-02-15T05:09:01.146Z,58.90
2019-02-15T05:09:39.783Z,58.90
2019-02-15T05:10:18.306Z,59.00
2019-02-15T05:10:57.585Z,59.00
2019-02-15T05:11:36.835Z,59.10
2019-02-15T05:12:17.728Z,59.20
2019-02-15T05:12:56.932Z,59.20
2019-02-15T05:13:36.221Z,59.10
2019-02-15T05:14:15.457Z,59.10
2019-02-15T05:14:54.891Z,59.10
2019-02-15T05:15:33.589Z,59.10
2019-02-15T05:16:13.071Z,59.00
2019-02-15T05:16:51.757Z,58.90
2019-02-15T05:17:31.083Z,58.90
2019-02-15T05:18:09.834Z,59.00
2019-02-15T05:18:48.890Z,59.00
2019-02-15T05:19:28.856Z,58.90
2019-02-15T05:20:08.051Z,58.90
2019-02-15T05:20:46.853Z,59.10
2019-02-15T05:21:26.132Z,59.20
2019-02-15T05:22:05.415Z,59.20
2019-02-15T05:22:44.053Z,59.20
2019-02-15T05:23:22.754Z,59.20
2019-02-15T05:24:01.891Z,59.10
2019-02-15T05:24:40.763Z,59.00
2019-02-15T05:25:19.430Z,59.10
2019-02-15T05:25:58.464Z,59.20
2019-02-15T05:26:37.920Z,59.20
2019-02-15T05:27:16.608Z,59.20
2019-02-15T05:27:55.940Z,59.10
2019-02-15T05:28:35.127Z,59.70
2019-02-15T05:29:13.869Z,59.00
2019-02-15T05:29:52.778Z,59.00
2019-02-15T05:30:32.121Z,59.30
2019-02-15T05:31:10.876Z,59.40
2019-02-15T05:31:49.512Z,59.30
2019-02-15T05:32:28.818Z,59.10
2019-02-15T05:33:07.520Z,59.10
2019-02-15T05:33:46.403Z,59.00
2019-02-15T05:34:25.043Z,59.10
2019-02-15T05:35:03.922Z,59.10
2019-02-15T05:35:42.597Z,59.40
2019-02-15T05:36:21.488Z,59.20
2019-02-15T05:37:00.554Z,59.20
2019-02-15T05:37:39.998Z,59.30
2019-02-15T05:38:19.067Z,59.20
2019-02-15T05:38:57.801Z,59.20
2019-02-15T05:39:36.513Z,59.30
2019-02-15T05:40:15.473Z,59.30
2019-02-15T05:40:54.102Z,60.00
2019-02-15T05:41:33.313Z,59.40
2019-02-15T05:42:12.667Z,59.10
2019-02-15T05:42:52.097Z,59.00
2019-02-15T05:43:30.974Z,59.10
2019-02-15T05:44:10.084Z,59.10
2019-02-15T05:44:49.347Z,59.10
2019-02-15T05:45:28.434Z,59.10
2019-02-15T05:46:08.085Z,59.10
2019-02-15T05:46:47.199Z,59.10
2019-02-15T05:47:25.975Z,59.10
2019-02-15T05:48:04.767Z,59.20
2019-02-15T05:48:43.455Z,59.20
2019-02-15T05:49:22.186Z,59.10
2019-02-15T05:50:01.371Z,59.10
2019-02-15T05:50:41.137Z,59.00
2019-02-15T05:51:20.547Z,59.10
2019-02-15T05:51:59.597Z,59.10
2019-02-15T05:52:38.871Z,59.20
2019-02-15T05:53:18.216Z,59.10
2019-02-15T05:53:57.577Z,59.30
2019-02-15T05:54:36.867Z,59.30
2019-02-15T05:55:16.515Z,59.40
2019-02-15T05:55:55.200Z,59.50
2019-02-15T05:56:34.003Z,59.50
2019-02-15T05:57:12.662Z,59.40
2019-02-15T05:57:52.335Z,59.40
2019-02-15T05:58:31.345Z,59.10
2019-02-15T05:59:10.512Z,58.90
2019-02-15T05:59:50.180Z,59.00
2019-02-15T06:00:36.733Z,59.10
2019-02-15T06:01:10.450Z,59.30
2019-02-15T06:01:49.489Z,59.40
2019-02-15T06:02:28.176Z,59.20
2019-02-15T06:03:06.968Z,59.30
2019-02-15T06:03:46.423Z,59.20
2019-02-15T06:04:25.132Z,59.20
2019-02-15T06:05:03.676Z,59.20
2019-02-15T06:05:42.742Z,59.20
2019-02-15T06:06:21.730Z,59.20
2019-02-15T06:07:00.941Z,59.10
2019-02-15T06:07:57.902Z,59.00
2019-02-15T06:08:36.601Z,58.60
2019-02-15T06:09:15.691Z,58.90
2019-02-15T06:09:55.164Z,59.00
2019-02-15T06:10:33.909Z,59.30
2019-02-15T06:11:12.755Z,59.20
2019-02-15T06:11:51.951Z,59.00
2019-02-15T06:12:31.151Z,58.90
2019-02-15T06:13:10.616Z,58.90
2019-02-15T06:13:50.008Z,59.10
2019-02-15T06:14:29.328Z,59.20
2019-02-15T06:15:14.778Z,59.20
2019-02-15T06:15:48.772Z,59.40
2019-02-15T06:16:27.540Z,59.30
2019-02-15T06:17:06.270Z,59.20
2019-02-15T06:17:44.972Z,59.10
2019-02-15T06:18:23.866Z,59.00
2019-02-15T06:19:02.769Z,58.90
2019-02-15T06:19:42.197Z,59.00
2019-02-15T06:20:21.366Z,59.20
2019-02-15T06:21:00.753Z,59.40
2019-02-15T06:21:40.462Z,59.20
2019-02-15T06:22:23.053Z,59.20
2019-02-15T06:23:02.203Z,59.20
2019-02-15T06:23:41.405Z,59.30
2019-02-15T06:24:20.885Z,59.40
2019-02-15T06:25:00.303Z,59.40
2019-02-15T06:25:39.132Z,59.40
2019-02-15T06:26:17.743Z,59.00
2019-02-15T06:26:56.525Z,59.00
2019-02-15T06:27:35.319Z,59.00
2019-02-15T06:28:14.784Z,59.00
2019-02-15T06:28:54.620Z,59.00
2019-02-15T06:29:33.593Z,59.40
2019-02-15T06:30:12.881Z,59.60
2019-02-15T06:30:52.210Z,59.00
2019-02-15T06:31:31.543Z,59.40
2019-02-15T06:32:10.691Z,59.30
2019-02-15T06:32:50.025Z,59.30
2019-02-15T06:33:28.675Z,59.40
2019-02-15T06:34:07.428Z,59.50
2019-02-15T06:34:46.582Z,59.40
2019-02-15T06:35:25.461Z,59.40
2019-02-15T06:37:03.832Z,59.00
2019-02-15T06:37:42.651Z,59.20
2019-02-15T06:38:22.122Z,59.40
2019-02-15T06:39:01.044Z,59.60
2019-02-15T06:39:39.714Z,59.60
2019-02-15T06:40:18.345Z,59.40
2019-02-15T06:40:57.723Z,59.20
2019-02-15T06:41:37.250Z,59.40
2019-02-15T06:42:15.943Z,59.80
2019-02-15T06:42:55.021Z,59.80
2019-02-15T06:43:33.714Z,59.90
2019-02-15T06:44:13.399Z,59.60
2019-02-15T06:44:52.614Z,59.60
2019-02-15T06:45:31.906Z,59.60
2019-02-15T06:46:10.534Z,60.00
2019-02-15T06:46:49.810Z,59.30
2019-02-15T06:47:28.919Z,59.40
2019-02-15T06:48:07.645Z,59.50
2019-02-15T06:48:46.295Z,59.60
2019-02-15T06:49:25.392Z,59.60
2019-02-15T06:50:04.675Z,59.60
2019-02-15T06:50:43.942Z,59.30
2019-02-15T06:51:23.240Z,59.50
2019-02-15T06:52:02.528Z,59.50
2019-02-15T06:52:42.149Z,59.50
2019-02-15T06:53:22.119Z,59.40
2019-02-15T06:54:00.797Z,59.60
2019-02-15T06:54:39.391Z,59.90
2019-02-15T06:55:18.151Z,60.10
2019-02-15T06:55:57.110Z,60.00
2019-02-15T06:56:36.213Z,60.00
2019-02-15T06:57:17.094Z,59.90
2019-02-15T06:57:56.060Z,60.00
2019-02-15T06:58:45.324Z,59.70
2019-02-15T06:59:35.202Z,59.90
2019-02-15T07:00:39.748Z,59.80
2019-02-15T07:01:31.987Z,59.30
2019-02-15T07:02:20.922Z,59.50
2019-02-15T07:03:04.551Z,59.60
2019-02-15T07:03:55.228Z,59.40
2019-02-15T07:04:39.344Z,59.40
2019-02-15T07:05:22.479Z,59.40
2019-02-15T07:06:01.116Z,59.40
2019-02-15T07:06:40.484Z,59.40
2019-02-15T07:07:19.105Z,59.40
2019-02-15T07:07:57.952Z,59.50
2019-02-15T07:08:36.730Z,59.40
2019-02-15T07:09:15.871Z,59.10
2019-02-15T07:09:55.158Z,59.20
2019-02-15T07:10:34.521Z,59.30
2019-02-15T07:11:13.297Z,59.50
2019-02-15T07:11:52.768Z,59.50
2019-02-15T07:12:32.291Z,59.60
2019-02-15T07:13:11.368Z,59.50
2019-02-15T07:13:50.632Z,59.50
2019-02-15T07:14:29.302Z,60.30
2019-02-15T07:15:08.273Z,59.60
2019-02-15T07:15:47.732Z,59.60
2019-02-15T07:16:26.817Z,59.70
2019-02-15T07:17:06.039Z,59.60
2019-02-15T07:17:45.358Z,59.50
2019-02-15T07:18:24.843Z,59.50
2019-02-15T07:19:03.858Z,59.60
2019-02-15T07:19:43.868Z,59.50
2019-02-15T07:20:23.328Z,59.60
2019-02-15T07:21:02.396Z,59.70
2019-02-15T07:21:41.988Z,59.40
2019-02-15T07:22:20.653Z,59.60
2019-02-15T07:22:59.357Z,59.10
2019-02-15T07:23:38.048Z,59.00
2019-02-15T07:24:16.655Z,59.30
2019-02-15T07:24:55.365Z,59.50
2019-02-15T07:25:34.758Z,59.30
2019-02-15T07:26:14.489Z,59.20
2019-02-15T07:26:53.735Z,59.50
2019-02-15T07:27:32.815Z,59.50
2019-02-15T07:28:11.492Z,59.50
2019-02-15T07:28:50.994Z,59.60
2019-02-15T07:29:29.577Z,59.60
2019-02-15T07:30:08.746Z,60.10
2019-02-15T07:30:47.427Z,59.30
2019-02-15T07:31:26.688Z,59.60
2019-02-15T07:32:05.438Z,59.50
2019-02-15T07:32:44.009Z,59.40
2019-02-15T07:33:22.701Z,59.40
2019-02-15T07:34:01.371Z,59.40
2019-02-15T07:34:40.357Z,59.50
2019-02-15T07:35:19.479Z,59.50
2019-02-15T07:35:58.464Z,59.60
2019-02-15T07:36:37.552Z,59.60
2019-02-15T07:37:16.866Z,59.60
2019-02-15T07:37:56.303Z,59.60
2019-02-15T07:38:34.942Z,59.60
2019-02-15T07:39:14.318Z,59.60
2019-02-15T07:39:52.983Z,59.90
2019-02-15T07:40:31.773Z,59.50
2019-02-15T07:41:10.660Z,59.70
2019-02-15T07:41:49.628Z,59.70
2019-02-15T07:42:28.578Z,59.80
2019-02-15T07:43:07.845Z,59.80
2019-02-15T07:43:47.362Z,59.60
2019-02-15T07:44:26.639Z,59.50
2019-02-15T07:45:05.951Z,59.20
2019-02-15T07:45:45.300Z,59.20
2019-02-15T07:46:24.001Z,59.20
2019-02-15T07:47:02.696Z,59.30
2019-02-15T07:47:41.348Z,59.40
2019-02-15T07:48:20.062Z,59.60
2019-02-15T07:48:59.430Z,59.70
2019-02-15T07:49:38.563Z,59.50
2019-02-15T07:50:18.151Z,59.50
2019-02-15T07:50:57.477Z,59.50
2019-02-15T07:51:36.616Z,59.60
2019-02-15T07:52:16.518Z,59.60
2019-02-15T07:52:55.266Z,59.50
2019-02-15T07:53:34.215Z,59.60
2019-02-15T07:54:13.906Z,59.60
2019-02-15T07:54:53.247Z,59.50
2019-02-15T07:55:31.896Z,59.70
2019-02-15T07:56:10.565Z,59.80
2019-02-15T07:56:49.869Z,59.80
2019-02-15T07:57:29.122Z,59.50
2019-02-15T07:58:08.891Z,59.50
2019-02-15T07:58:48.100Z,59.60
2019-02-15T07:59:27.351Z,59.60
2019-02-15T08:00:06.907Z,59.60
2019-02-15T08:00:46.175Z,59.50
2019-02-15T08:01:25.588Z,59.60
2019-02-15T08:02:04.218Z,59.40
2019-02-15T08:02:42.937Z,59.70
2019-02-15T08:03:21.638Z,59.60
2019-02-15T08:04:00.322Z,59.50
2019-02-15T08:04:39.003Z,59.40
2019-02-15T08:05:17.127Z,59.50
2019-02-15T08:05:55.728Z,59.60
2019-02-15T08:06:35.097Z,59.70
2019-02-15T08:07:14.479Z,59.60
2019-02-15T08:07:54.092Z,59.60
2019-02-15T08:08:32.761Z,59.40
2019-02-15T08:09:14.235Z,59.60
2019-02-15T08:09:52.934Z,59.80
2019-02-15T08:10:31.776Z,59.80
2019-02-15T08:11:11.041Z,59.80
2019-02-15T08:11:49.960Z,59.80
2019-02-15T08:12:29.033Z,59.80
2019-02-15T08:13:07.771Z,59.60
2019-02-15T08:13:46.467Z,59.60
2019-02-15T08:14:25.226Z,59.60
2019-02-15T08:15:03.871Z,59.80
2019-02-15T08:15:51.316Z,59.80
2019-02-15T08:16:23.206Z,59.70
2019-02-15T08:17:02.376Z,59.50
2019-02-15T08:17:41.468Z,60.10
2019-02-15T08:18:20.671Z,59.50
2019-02-15T08:18:59.985Z,59.70
2019-02-15T08:19:38.692Z,59.70
2019-02-15T08:20:17.354Z,59.80
2019-02-15T08:20:56.197Z,59.90
2019-02-15T08:21:34.849Z,59.70
2019-02-15T08:22:13.919Z,59.40
2019-02-15T08:22:52.745Z,59.40
2019-02-15T08:23:32.794Z,59.60
2019-02-15T08:24:12.059Z,59.60
2019-02-15T08:24:50.977Z,59.70
2019-02-15T08:25:30.186Z,59.80
2019-02-15T08:26:09.965Z,59.90
2019-02-15T08:26:49.719Z,59.80
2019-02-15T08:27:29.092Z,59.70
2019-02-15T08:28:07.827Z,59.40
2019-02-15T08:28:46.495Z,59.50
2019-02-15T08:29:26.134Z,59.60
2019-02-15T08:30:04.880Z,59.70
2019-02-15T08:30:43.942Z,59.80
2019-02-15T08:31:22.938Z,59.80
2019-02-15T08:32:02.041Z,59.70
2019-02-15T08:32:41.264Z,59.70
2019-02-15T08:33:20.718Z,59.70
2019-02-15T08:33:59.890Z,59.60
2019-02-15T08:34:38.958Z,59.50
2019-02-15T08:35:18.162Z,59.60
2019-02-15T08:35:56.889Z,59.60
2019-02-15T08:36:35.556Z,59.90
2019-02-15T08:37:14.183Z,59.80
2019-02-15T08:37:53.550Z,59.70
2019-02-15T08:38:33.439Z,59.70
2019-02-15T08:39:13.069Z,59.70
2019-02-15T08:39:52.434Z,59.70
2019-02-15T08:40:31.838Z,59.60
2019-02-15T08:41:10.870Z,59.70
2019-02-15T08:42:01.233Z,59.70
2019-02-15T08:42:31.077Z,59.80
2019-02-15T08:43:10.387Z,59.90
2019-02-15T08:43:49.585Z,59.90
2019-02-15T08:44:29.048Z,59.80
2019-02-15T08:45:08.012Z,59.70
2019-02-15T08:45:47.335Z,59.70
2019-02-15T08:46:26.016Z,59.60
2019-02-15T08:47:04.736Z,59.60
2019-02-15T08:47:43.774Z,59.50
2019-02-15T08:48:23.206Z,59.60
2019-02-15T08:49:02.471Z,59.60
2019-02-15T08:49:41.704Z,60.20
2019-02-15T08:50:21.066Z,59.50
2019-02-15T08:51:00.504Z,59.40
2019-02-15T08:51:40.091Z,59.50
2019-02-15T08:52:19.633Z,59.70
2019-02-15T08:52:58.376Z,59.80
2019-02-15T08:53:37.551Z,59.70
2019-02-15T08:54:16.646Z,60.20
2019-02-15T08:54:55.418Z,59.60
2019-02-15T08:55:34.186Z,59.50
2019-02-15T08:56:13.365Z,59.50
2019-02-15T08:56:52.886Z,59.60
2019-02-15T08:57:31.605Z,59.60
2019-02-15T08:58:11.437Z,59.80
2019-02-15T08:58:50.693Z,59.70